createdAt,value
2023-05-21T00:00:09.373Z,91.33
2023-05-21T00:02:39.847Z,90.50
2023-05-21T00:05:12.817Z,92.12
2023-05-21T00:07:41.464Z,91.69
2023-05-21T00:10:09.028Z,90.89
2023-05-21T00:12:36.127Z,92.73
2023-05-21T00:15:03.114Z,92.97
2023-05-21T00:17:30.344Z,91.94
2023-05-21T00:19:57.732Z,91.53
2023-05-21T00:22:24.729Z,90.97
2023-05-21T00:24:51.651Z,91.77
2023-05-21T00:27:18.568Z,92.38
2023-05-21T00:29:45.515Z,92.48
2023-05-21T00:32:12.712Z,92.96
2023-05-21T00:34:40.515Z,91.72
2023-05-21T00:37:10.069Z,92.77
2023-05-21T00:39:37.300Z,92.67
2023-05-21T00:42:04.752Z,91.39
2023-05-21T00:44:34.486Z,92.04
2023-05-21T00:47:02.492Z,91.88
2023-05-21T00:49:29.844Z,92.82
2023-05-21T00:51:57.180Z,93.30
2023-05-21T00:54:25.043Z,92.90
2023-05-21T00:56:52.300Z,93.47
2023-05-21T00:59:19.467Z,91.81
2023-05-21T01:01:46.678Z,92.13
2023-05-21T01:04:13.731Z,92.55
2023-05-21T01:06:40.573Z,89.32
2023-05-21T01:09:07.546Z,90.54
2023-05-21T01:11:40.973Z,92.73
2023-05-21T01:14:11.296Z,93.01
2023-05-21T01:16:39.905Z,92.97
2023-05-21T01:19:07.972Z,93.41
2023-05-21T01:21:37.645Z,93.51
2023-05-21T01:24:07.875Z,93.96
2023-05-21T01:26:38.736Z,93.05
2023-05-21T01:29:13.401Z,93.63
2023-05-21T01:31:44.441Z,93.01
2023-05-21T01:34:11.865Z,93.86
2023-05-21T01:36:44.527Z,93.59
2023-05-21T01:39:16.311Z,93.79
2023-05-21T01:41:45.555Z,93.25
2023-05-21T01:44:13.243Z,92.94
2023-05-21T01:46:41.383Z,93.60
2023-05-21T01:49:09.554Z,93.99
2023-05-21T01:51:37.203Z,93.52
2023-05-21T01:54:04.035Z,92.92
2023-05-21T01:56:34.036Z,93.79
2023-05-21T01:59:01.416Z,93.27
2023-05-21T02:01:30.420Z,92.88
2023-05-21T02:03:58.212Z,92.95
2023-05-21T02:06:25.507Z,92.91
2023-05-21T02:08:52.429Z,93.29
2023-05-21T02:11:19.571Z,93.54
2023-05-21T02:13:47.147Z,91.95
2023-05-21T02:16:15.966Z,93.57
2023-05-21T02:18:46.603Z,93.36
2023-05-21T02:21:13.616Z,92.85
2023-05-21T02:23:42.262Z,93.66
2023-05-21T02:26:09.187Z,93.08
2023-05-21T02:28:36.544Z,93.38
2023-05-21T02:31:04.060Z,94.17
2023-05-21T02:33:31.171Z,93.67
2023-05-21T02:35:58.196Z,94.12
2023-05-21T02:38:26.036Z,94.63
2023-05-21T02:40:53.699Z,94.39
2023-05-21T02:43:21.258Z,94.92
2023-05-21T02:45:48.357Z,94.04
2023-05-21T02:48:15.321Z,95.05
2023-05-21T02:50:42.679Z,94.54
2023-05-21T02:53:09.547Z,93.18
2023-05-21T02:55:36.990Z,91.89
2023-05-21T02:58:03.961Z,94.15
2023-05-21T03:00:30.941Z,93.28
2023-05-21T03:02:58.011Z,93.54
2023-05-21T03:05:25.120Z,93.87
2023-05-21T03:07:52.747Z,94.43
2023-05-21T03:10:20.679Z,94.52
2023-05-21T03:12:47.656Z,93.95
2023-05-21T03:15:14.997Z,92.66
2023-05-21T03:17:42.451Z,94.09
2023-05-21T03:20:16.158Z,93.70
2023-05-21T03:22:46.737Z,92.84
2023-05-21T03:25:13.916Z,93.09
2023-05-21T03:27:41.199Z,95.54
2023-05-21T03:30:21.282Z,93.58
2023-05-21T03:33:17.465Z,95.50
2023-05-21T03:35:45.501Z,95.37
2023-05-21T03:38:12.556Z,95.90
2023-05-21T03:40:39.484Z,95.09
2023-05-21T03:43:07.196Z,95.97
2023-05-21T03:45:34.241Z,97.02
2023-05-21T03:48:20.052Z,97.03
2023-05-21T03:50:47.435Z,96.91
2023-05-21T03:53:14.837Z,96.69
2023-05-21T03:55:41.801Z,96.32
2023-05-21T03:58:09.643Z,96.97
2023-05-21T04:00:40.759Z,96.82
2023-05-21T04:03:09.710Z,97.51
2023-05-21T04:05:37.115Z,97.62
2023-05-21T04:08:04.296Z,97.35
2023-05-21T04:10:31.271Z,97.47
2023-05-21T04:12:58.308Z,97.65
2023-05-21T04:15:27.623Z,97.41
2023-05-21T04:17:55.341Z,97.56
2023-05-21T04:20:22.339Z,97.48
2023-05-21T04:22:49.222Z,97.83
2023-05-21T04:25:16.140Z,98.37
2023-05-21T04:27:43.755Z,98.01
2023-05-21T04:30:11.275Z,97.86
2023-05-21T04:32:39.402Z,98.32
2023-05-21T04:35:07.991Z,95.44
2023-05-21T04:37:35.281Z,93.91
2023-05-21T04:40:04.389Z,93.08
2023-05-21T04:42:33.091Z,92.52
2023-05-21T04:45:00.870Z,92.27
2023-05-21T04:47:30.492Z,91.09
2023-05-21T04:49:57.501Z,92.44
2023-05-21T04:52:25.167Z,91.92
2023-05-21T04:54:54.160Z,93.20
2023-05-21T04:57:21.883Z,92.95
2023-05-21T04:59:49.430Z,94.28
2023-05-21T05:02:16.408Z,94.94
2023-05-21T05:04:44.107Z,94.79
2023-05-21T05:07:11.334Z,94.37
2023-05-21T05:09:38.251Z,95.04
2023-05-21T05:12:05.833Z,95.13
2023-05-21T05:14:32.738Z,94.85
2023-05-21T05:17:00.251Z,94.47
2023-05-21T05:19:28.182Z,94.69
2023-05-21T05:21:55.180Z,94.76
2023-05-21T05:24:21.997Z,95.28
2023-05-21T05:26:48.949Z,94.61
2023-05-21T05:29:16.443Z,94.73
2023-05-21T05:31:43.449Z,95.81
2023-05-21T05:34:10.605Z,94.56
2023-05-21T05:36:38.297Z,95.42
2023-05-21T05:39:05.611Z,95.46
2023-05-21T05:41:32.653Z,94.95
2023-05-21T05:43:59.521Z,93.78
2023-05-21T05:46:30.105Z,94.07
2023-05-21T05:48:57.640Z,93.03
2023-05-21T05:51:24.429Z,94.33
2023-05-21T05:53:51.429Z,93.97
2023-05-21T05:56:18.240Z,93.88
2023-05-21T05:58:45.066Z,93.90
2023-05-21T06:01:14.209Z,93.93
2023-05-21T06:03:41.408Z,92.08
2023-05-21T06:06:14.614Z,93.00
2023-05-21T06:08:42.688Z,93.71
2023-05-21T06:11:09.943Z,91.95
2023-05-21T06:13:37.156Z,93.09
2023-05-21T06:16:06.485Z,92.35
2023-05-21T06:18:33.510Z,92.40
2023-05-21T06:21:00.617Z,92.60
2023-05-21T06:23:28.321Z,93.33
2023-05-21T06:25:55.436Z,91.94
2023-05-21T06:28:22.337Z,92.49
2023-05-21T06:30:49.726Z,91.97
2023-05-21T06:33:16.899Z,91.71
2023-05-21T06:35:44.350Z,90.92
2023-05-21T06:38:12.031Z,92.55
2023-05-21T06:40:38.876Z,91.48
2023-05-21T06:43:06.190Z,92.46
2023-05-21T06:45:41.552Z,92.13
2023-05-21T06:48:26.382Z,91.58
2023-05-21T06:50:53.382Z,91.26
2023-05-21T06:53:20.288Z,92.66
2023-05-21T06:55:47.226Z,91.03
2023-05-21T06:58:31.291Z,92.05
2023-05-21T07:00:58.861Z,91.54
2023-05-21T07:03:26.073Z,91.50
2023-05-21T07:05:53.979Z,92.01
2023-05-21T07:08:21.545Z,92.46
2023-05-21T07:10:49.500Z,92.22
2023-05-21T07:13:17.417Z,91.48
2023-05-21T07:15:44.842Z,91.33
2023-05-21T07:18:12.162Z,92.00
2023-05-21T07:20:39.506Z,92.69
2023-05-21T07:23:12.751Z,91.21
2023-05-21T07:25:39.743Z,92.51
2023-05-21T07:28:06.835Z,93.44
2023-05-21T07:30:35.326Z,93.47
2023-05-21T07:33:04.066Z,92.09
2023-05-21T07:35:31.259Z,91.03
2023-05-21T07:37:58.088Z,90.35
2023-05-21T07:40:25.054Z,93.16
2023-05-21T07:42:52.405Z,90.69
2023-05-21T07:45:22.111Z,90.06
2023-05-21T07:47:49.386Z,91.83
2023-05-21T07:50:16.554Z,91.30
2023-05-21T07:52:43.542Z,90.34
2023-05-21T07:55:11.261Z,89.67
2023-05-21T07:57:39.941Z,89.91
2023-05-21T08:00:15.833Z,90.95
2023-05-21T08:02:46.994Z,91.09
2023-05-21T08:05:16.618Z,92.48
2023-05-21T08:07:44.366Z,92.81
2023-05-21T08:10:11.417Z,93.54
2023-05-21T08:12:38.313Z,92.65
2023-05-21T08:15:07.097Z,92.11
2023-05-21T08:17:39.631Z,92.73
2023-05-21T08:20:07.593Z,91.88
2023-05-21T08:22:37.222Z,92.14
2023-05-21T08:25:04.704Z,91.76
2023-05-21T08:27:31.514Z,93.36
2023-05-21T08:29:58.605Z,92.35
2023-05-21T08:32:26.465Z,91.67
2023-05-21T08:34:54.354Z,90.10
2023-05-21T08:37:41.400Z,90.04
2023-05-21T08:40:43.554Z,88.66
2023-05-21T08:43:14.620Z,89.20
2023-05-21T08:45:53.451Z,89.74
2023-05-21T08:48:23.185Z,89.58
2023-05-21T08:50:54.378Z,89.55
2023-05-21T08:53:29.419Z,90.25
2023-05-21T08:55:57.757Z,88.87
2023-05-21T08:58:33.873Z,90.05
2023-05-21T09:01:01.728Z,89.94
2023-05-21T09:03:30.172Z,90.15
2023-05-21T09:05:57.678Z,89.65
2023-05-21T09:08:32.656Z,90.10
2023-05-21T09:11:06.516Z,90.20
2023-05-21T09:13:40.703Z,87.98
2023-05-21T09:16:13.736Z,88.47
2023-05-21T09:18:40.690Z,88.72
2023-05-21T09:21:29.538Z,88.71
2023-05-21T09:24:06.050Z,89.76
2023-05-21T09:26:33.039Z,87.35
2023-05-21T09:29:03.782Z,88.28
2023-05-21T09:31:30.882Z,87.62
2023-05-21T09:33:57.888Z,88.21
2023-05-21T09:36:27.167Z,88.97
2023-05-21T09:38:54.013Z,88.58
2023-05-21T09:41:22.362Z,87.67
2023-05-21T09:43:49.661Z,88.45
2023-05-21T09:46:21.045Z,87.64
2023-05-21T09:48:48.097Z,88.77
2023-05-21T09:51:19.802Z,85.99
2023-05-21T09:53:49.829Z,87.14
2023-05-21T09:56:22.527Z,87.58
2023-05-21T09:58:52.051Z,84.27
2023-05-21T10:01:19.978Z,86.06
2023-05-21T10:03:52.170Z,85.94
2023-05-21T10:06:19.449Z,85.27
2023-05-21T10:08:48.745Z,84.24
2023-05-21T10:11:16.486Z,85.37
2023-05-21T10:13:46.026Z,84.52
2023-05-21T10:16:13.001Z,85.18
2023-05-21T10:18:40.509Z,84.80
2023-05-21T10:21:08.229Z,86.52
2023-05-21T10:23:36.556Z,85.02
2023-05-21T10:26:04.265Z,85.82
2023-05-21T10:28:31.512Z,85.90
2023-05-21T10:30:58.840Z,86.63
2023-05-21T10:33:25.849Z,85.31
2023-05-21T10:35:53.707Z,86.14
2023-05-21T10:38:23.440Z,85.65
2023-05-21T10:40:50.278Z,85.51
2023-05-21T10:43:36.033Z,83.62
2023-05-21T10:46:21.095Z,83.70
2023-05-21T10:49:22.735Z,83.46
2023-05-21T10:52:09.519Z,82.03
2023-05-21T10:54:46.318Z,82.25
2023-05-21T10:57:36.017Z,81.99
2023-05-21T11:00:06.150Z,83.04
2023-05-21T11:02:33.126Z,81.47
2023-05-21T11:05:01.196Z,80.91
2023-05-21T11:07:56.724Z,82.36
2023-05-21T11:10:44.547Z,81.12
2023-05-21T11:13:16.661Z,81.44
2023-05-21T11:15:58.619Z,81.54
2023-05-21T11:18:38.133Z,82.32
2023-05-21T11:21:15.056Z,82.50
2023-05-21T11:23:51.353Z,84.37
2023-05-21T11:26:18.382Z,82.75
2023-05-21T11:28:45.190Z,83.43
2023-05-21T11:31:28.099Z,84.10
2023-05-21T11:34:17.166Z,82.72
2023-05-21T11:36:48.512Z,84.01
2023-05-21T11:39:21.764Z,83.73
2023-05-21T11:41:51.332Z,82.79
2023-05-21T11:44:18.264Z,82.26
2023-05-21T11:46:46.441Z,83.02
2023-05-21T11:49:13.460Z,85.26
2023-05-21T11:51:40.757Z,87.49
2023-05-21T11:54:09.214Z,89.82
2023-05-21T11:56:36.935Z,89.23
2023-05-21T11:59:03.792Z,90.07
2023-05-21T12:01:31.266Z,90.48
2023-05-21T12:03:58.093Z,88.92
2023-05-21T12:06:28.013Z,88.84
2023-05-21T12:08:58.438Z,89.07
2023-05-21T12:11:26.846Z,85.74
2023-05-21T12:13:53.686Z,87.66
2023-05-21T12:16:20.979Z,85.92
2023-05-21T12:18:48.021Z,86.59
2023-05-21T12:21:15.681Z,87.56
2023-05-21T12:23:42.426Z,86.42
2023-05-21T12:26:12.149Z,86.49
2023-05-21T12:28:39.705Z,87.91
2023-05-21T12:31:06.730Z,88.58
2023-05-21T12:33:35.000Z,88.67
2023-05-21T12:36:03.919Z,87.37
2023-05-21T12:38:31.728Z,87.49
2023-05-21T12:41:06.073Z,88.51
2023-05-21T12:43:33.569Z,88.11
2023-05-21T12:46:00.503Z,87.15
2023-05-21T12:48:27.442Z,88.15
2023-05-21T12:50:54.245Z,87.54
2023-05-21T12:53:21.052Z,86.49
2023-05-21T12:55:47.877Z,85.84
2023-05-21T12:58:14.821Z,86.90
2023-05-21T13:00:43.288Z,87.89
2023-05-21T13:03:10.248Z,87.29
2023-05-21T13:05:40.530Z,86.10
2023-05-21T13:08:07.464Z,85.41
2023-05-21T13:10:34.261Z,86.24
2023-05-21T13:13:01.819Z,85.84
2023-05-21T13:15:28.774Z,83.97
2023-05-21T13:17:57.263Z,83.80
2023-05-21T13:20:26.552Z,83.71
2023-05-21T13:22:54.337Z,84.10
2023-05-21T13:25:25.008Z,83.88
2023-05-21T13:27:52.442Z,82.90
2023-05-21T13:30:20.122Z,84.54
2023-05-21T13:32:47.656Z,83.73
2023-05-21T13:35:16.764Z,84.91
2023-05-21T13:37:44.714Z,84.55
2023-05-21T13:40:16.509Z,81.96
2023-05-21T13:42:45.529Z,84.15
2023-05-21T13:45:14.384Z,83.75
2023-05-21T13:47:41.661Z,80.07
2023-05-21T13:50:09.567Z,81.58
2023-05-21T13:52:38.555Z,81.53
2023-05-21T13:55:06.086Z,82.18
2023-05-21T13:57:33.653Z,82.87
2023-05-21T14:00:01.157Z,83.73
2023-05-21T14:02:28.397Z,81.71
2023-05-21T14:04:55.448Z,81.63
2023-05-21T14:07:22.573Z,81.90
2023-05-21T14:09:49.732Z,81.15
2023-05-21T14:12:17.155Z,82.48
2023-05-21T14:14:44.202Z,82.50
2023-05-21T14:17:11.158Z,82.56
2023-05-21T14:19:38.032Z,80.83
2023-05-21T14:22:04.997Z,81.34
2023-05-21T14:24:31.823Z,82.33
2023-05-21T14:26:58.732Z,82.69
2023-05-21T14:29:25.584Z,80.77
2023-05-21T14:31:52.460Z,80.28
2023-05-21T14:34:19.372Z,81.81
2023-05-21T14:36:46.216Z,81.51
2023-05-21T14:39:13.063Z,79.81
2023-05-21T14:41:40.022Z,79.59
2023-05-21T14:44:06.933Z,79.60
2023-05-21T14:46:33.971Z,81.42
2023-05-21T14:49:00.991Z,82.27
2023-05-21T14:51:27.987Z,82.57
2023-05-21T14:53:55.803Z,83.20
2023-05-21T14:56:23.568Z,82.59
2023-05-21T14:58:50.376Z,83.93
2023-05-21T15:01:17.933Z,84.83
2023-05-21T15:03:45.272Z,84.38
2023-05-21T15:06:12.556Z,83.83
2023-05-21T15:08:40.208Z,84.40
2023-05-21T15:11:10.217Z,83.93
2023-05-21T15:13:38.351Z,83.48
2023-05-21T15:16:05.484Z,84.37
2023-05-21T15:18:32.358Z,87.15
2023-05-21T15:20:59.352Z,85.50
2023-05-21T15:23:27.877Z,85.46
2023-05-21T15:25:55.694Z,85.30
2023-05-21T15:28:23.367Z,86.41
2023-05-21T15:30:50.210Z,85.64
2023-05-21T15:33:17.179Z,86.49
2023-05-21T15:35:44.379Z,85.56
2023-05-21T15:38:11.619Z,87.52
2023-05-21T15:40:41.450Z,87.36
2023-05-21T15:43:08.472Z,87.82
2023-05-21T15:45:35.607Z,88.37
2023-05-21T15:48:02.798Z,87.52
2023-05-21T15:50:29.713Z,87.57
2023-05-21T15:52:56.588Z,86.58
2023-05-21T15:55:23.429Z,87.19
2023-05-21T15:57:50.341Z,86.65
2023-05-21T16:00:17.140Z,86.64
2023-05-21T16:02:44.146Z,87.15
2023-05-21T16:05:11.117Z,85.68
2023-05-21T16:07:38.427Z,85.32
2023-05-21T16:10:06.622Z,84.56
2023-05-21T16:12:33.445Z,86.06
2023-05-21T16:15:00.333Z,86.16
2023-05-21T16:17:27.256Z,87.00
2023-05-21T16:19:54.036Z,87.04
2023-05-21T16:22:20.876Z,87.02
2023-05-21T16:24:48.004Z,86.72
2023-05-21T16:27:14.925Z,87.26
2023-05-21T16:29:42.144Z,87.82
2023-05-21T16:32:10.674Z,88.77
2023-05-21T16:34:37.570Z,88.75
2023-05-21T16:37:04.676Z,87.85
2023-05-21T16:39:31.568Z,88.49
2023-05-21T16:41:59.899Z,89.55
2023-05-21T16:44:27.509Z,88.83
2023-05-21T16:46:54.473Z,90.33
2023-05-21T16:49:21.464Z,91.27
2023-05-21T16:51:48.347Z,91.05
2023-05-21T16:54:15.125Z,90.40
2023-05-21T16:56:42.018Z,90.28
2023-05-21T16:59:08.770Z,89.12
2023-05-21T17:01:35.745Z,88.88
2023-05-21T17:04:02.875Z,88.78
2023-05-21T17:06:29.911Z,88.77
2023-05-21T17:08:56.671Z,89.01
2023-05-21T17:11:23.530Z,89.00
2023-05-21T17:13:50.504Z,88.89
2023-05-21T17:16:17.428Z,88.60
2023-05-21T17:18:44.425Z,90.35
2023-05-21T17:21:11.343Z,88.66
2023-05-21T17:23:38.164Z,88.53
2023-05-21T17:26:07.155Z,88.74
2023-05-21T17:28:33.916Z,87.58
2023-05-21T17:31:01.875Z,87.08
2023-05-21T17:33:28.906Z,87.98
2023-05-21T17:35:58.475Z,87.51
2023-05-21T17:38:25.317Z,87.75
2023-05-21T17:40:52.250Z,87.57
2023-05-21T17:43:19.135Z,88.08
2023-05-21T17:45:46.290Z,88.97
2023-05-21T17:48:13.243Z,87.96
2023-05-21T17:50:40.180Z,86.96
2023-05-21T17:53:07.167Z,89.41
2023-05-21T17:55:34.116Z,88.61
2023-05-21T17:58:01.066Z,89.11
2023-05-21T18:00:27.936Z,89.61
2023-05-21T18:02:54.865Z,90.02
2023-05-21T18:05:22.863Z,90.17
2023-05-21T18:07:49.794Z,88.11
2023-05-21T18:10:16.684Z,88.20
2023-05-21T18:12:46.213Z,87.81
2023-05-21T18:15:14.204Z,88.52
2023-05-21T18:17:41.142Z,89.39
2023-05-21T18:20:08.505Z,89.88
2023-05-21T18:22:36.712Z,88.70
2023-05-21T18:25:04.603Z,89.74
2023-05-21T18:27:31.395Z,89.26
2023-05-21T18:30:02.321Z,88.66
2023-05-21T18:32:29.425Z,88.22
2023-05-21T18:34:56.700Z,86.64
2023-05-21T18:37:23.594Z,87.63
2023-05-21T18:39:50.478Z,88.71
2023-05-21T18:42:17.315Z,88.76
2023-05-21T18:44:46.430Z,89.15
2023-05-21T18:47:13.748Z,89.31
2023-05-21T18:49:40.547Z,89.32
2023-05-21T18:52:07.767Z,89.89
2023-05-21T18:54:34.691Z,89.51
2023-05-21T18:57:01.504Z,90.18
2023-05-21T18:59:29.071Z,89.95
2023-05-21T19:01:56.136Z,91.08
2023-05-21T19:04:23.024Z,90.52
2023-05-21T19:06:49.904Z,91.11
2023-05-21T19:09:17.121Z,90.01
2023-05-21T19:11:43.960Z,90.34
2023-05-21T19:14:10.764Z,89.88
2023-05-21T19:16:37.599Z,89.65
2023-05-21T19:19:04.485Z,89.71
2023-05-21T19:21:31.657Z,90.81
2023-05-21T19:23:58.851Z,89.67
2023-05-21T19:26:25.755Z,88.89
2023-05-21T19:28:55.545Z,90.78
2023-05-21T19:31:23.052Z,90.83
2023-05-21T19:33:50.178Z,90.24
2023-05-21T19:36:17.268Z,91.02
2023-05-21T19:38:50.746Z,90.94
2023-05-21T19:41:18.331Z,90.03
2023-05-21T19:43:45.820Z,90.63
2023-05-21T19:46:13.024Z,90.85
2023-05-21T19:48:39.990Z,92.19
2023-05-21T19:51:06.822Z,92.31
2023-05-21T19:53:33.762Z,91.18
2023-05-21T19:56:00.721Z,91.63
2023-05-21T19:58:29.653Z,91.02
2023-05-21T20:00:58.503Z,90.35
2023-05-21T20:03:26.738Z,90.63
2023-05-21T20:05:53.899Z,90.45
2023-05-21T20:08:21.183Z,88.80
2023-05-21T20:10:50.526Z,88.75
2023-05-21T20:13:18.412Z,88.90
2023-05-21T20:15:45.227Z,89.52
2023-05-21T20:18:12.882Z,88.92
2023-05-21T20:20:41.415Z,90.47
2023-05-21T20:23:08.980Z,90.17
2023-05-21T20:25:35.901Z,89.75
2023-05-21T20:28:04.017Z,89.75
2023-05-21T20:30:34.928Z,90.59
2023-05-21T20:33:02.449Z,91.02
2023-05-21T20:35:29.442Z,90.75
2023-05-21T20:38:02.177Z,91.28
2023-05-21T20:40:29.301Z,91.61
2023-05-21T20:42:56.537Z,91.27
2023-05-21T20:45:23.815Z,90.67
2023-05-21T20:47:51.036Z,89.24
2023-05-21T20:50:18.330Z,90.97
2023-05-21T20:52:47.287Z,90.60
2023-05-21T20:55:15.026Z,90.00
2023-05-21T20:57:42.301Z,91.10
2023-05-21T21:00:13.200Z,91.73
2023-05-21T21:02:40.828Z,91.48
2023-05-21T21:05:10.785Z,91.24
2023-05-21T21:07:37.805Z,92.13
2023-05-21T21:10:05.650Z,91.43
2023-05-21T21:12:32.611Z,91.89
2023-05-21T21:14:59.501Z,92.59
2023-05-21T21:17:26.657Z,92.18
2023-05-21T21:19:54.551Z,93.68
2023-05-21T21:22:21.728Z,93.50
2023-05-21T21:24:48.970Z,93.11
2023-05-21T21:27:15.999Z,89.77
2023-05-21T21:29:42.852Z,89.69
2023-05-21T21:32:10.057Z,90.74
2023-05-21T21:34:36.927Z,90.30
2023-05-21T21:37:04.392Z,92.59
2023-05-21T21:39:31.176Z,93.32
2023-05-21T21:41:58.620Z,93.29
2023-05-21T21:44:25.745Z,94.72
2023-05-21T21:46:52.839Z,95.17
2023-05-21T21:49:19.774Z,94.79
2023-05-21T21:51:47.149Z,92.65
2023-05-21T21:54:14.070Z,91.31
2023-05-21T21:56:41.671Z,92.82
2023-05-21T21:59:08.710Z,93.71
2023-05-21T22:01:36.202Z,93.68
2023-05-21T22:04:03.335Z,92.51
2023-05-21T22:06:31.549Z,93.31
2023-05-21T22:08:58.414Z,92.29
2023-05-21T22:11:26.719Z,91.78
2023-05-21T22:13:53.918Z,92.31
2023-05-21T22:16:21.280Z,92.58
2023-05-21T22:18:50.225Z,92.91
2023-05-21T22:21:18.724Z,93.09
2023-05-21T22:23:45.560Z,92.91
2023-05-21T22:26:12.405Z,91.74
2023-05-21T22:28:39.661Z,91.36
2023-05-21T22:31:08.020Z,92.80
2023-05-21T22:33:35.326Z,90.71
2023-05-21T22:36:02.411Z,91.67
2023-05-21T22:38:29.396Z,92.35
2023-05-21T22:40:56.782Z,92.92
2023-05-21T22:43:23.892Z,93.15
2023-05-21T22:45:50.796Z,93.00
2023-05-21T22:48:18.511Z,90.58
2023-05-21T22:50:46.545Z,92.65
2023-05-21T22:53:14.001Z,92.32
2023-05-21T22:55:41.177Z,92.10
2023-05-21T22:58:08.020Z,91.51
